Terminal Aerodrome Forecast
Issued by NWS Cleveland, OH

Home | Current Version | Previous Version | Text Only | Print | Product List | Glossary On
Versions: 1 2 3 4 5 6 7 8 9 10 11 12 13 14 15 16
000
FTUS41 KCLE 171921 AAA
TAFYNG
TAF AMD
KYNG 171921Z 1719/1818 25010KT P6SM SCT015 BKN040
      TEMPO 1719/1721 24010G18KT P6SM SCT015 BKN025
     FM172100 25008KT P6SM SCT015 BKN025
     FM180200 25008KT 5SM BR OVC006
     FM180800 25008KT 2SM BR VCSH OVC002
     FM181500 25008KT 5SM BR OVC006=

USA.gov is the U.S. government's official web portal to all federal, state and local government web resources and services.